Waynesboro, Pennsylvania
Current Conditions -  °F | °C
As of 6:53 PM on Wednesday 22 Oct 2014 (Local Time) from KRYT Reporting Station
Overcast Overcast  
Wind Chill: 54°   Ceiling: 2800
Heat Index: 54°   Visibility: 10mi
Dew Point: 43°   Wind: 7mph
Humidity: 66%   Direction: NA
Pressure: 29.97"   Gusts: 17mph
Location:  39.76°N, 77.58°W
Report Text: KRYT 222253Z AUTO VRB06G15KT 10SM OVC028 12/06 A2997 RMK AO2 SLP148 T01220061 $
Loading
Personal Weather Stations






























Interactive Weather Map New forecast layout! Learn more

10-Day Weather Forecast

Advertisements
Track Severe Weather on mobile